sensor_id;sensor_type;location;lat;lon;timestamp;pressure;altitude;pressure_sealevel;temperature;humidity
36014;BME280;22275;43.208;27.620;2023-09-12T00:01:48;101473.72;;;17.66;100.00
36014;BME280;22275;43.208;27.620;2023-09-12T00:04:16;101475.44;;;17.67;100.00
36014;BME280;22275;43.208;27.620;2023-09-12T00:06:43;101471.03;;;17.55;100.00
36014;BME280;22275;43.208;27.620;2023-09-12T00:09:11;101474.34;;;17.35;100.00
36014;BME280;22275;43.208;27.620;2023-09-12T00:11:39;101472.59;;;17.23;100.00
36014;BME280;22275;43.208;27.620;2023-09-12T00:14:08;101461.97;;;17.34;100.00
36014;BME280;22275;43.208;27.620;2023-09-12T00:16:37;101457.97;;;17.63;100.00
36014;BME280;22275;43.208;27.620;2023-09-12T00:19:05;101454.16;;;17.90;100.00
36014;BME280;22275;43.208;27.620;2023-09-12T00:21:33;101458.03;;;18.19;100.00
36014;BME280;22275;43.208;27.620;2023-09-12T00:24:00;101461.00;;;18.48;100.00
36014;BME280;22275;43.208;27.620;2023-09-12T00:26:29;101462.00;;;18.58;100.00
36014;BME280;22275;43.208;27.620;2023-09-12T00:28:57;101465.50;;;18.69;100.00
36014;BME280;22275;43.208;27.620;2023-09-12T00:31:24;101464.06;;;18.54;100.00
36014;BME280;22275;43.208;27.620;2023-09-12T00:33:51;101464.28;;;18.62;100.00
36014;BME280;22275;43.208;27.620;2023-09-12T00:36:20;101462.00;;;18.47;100.00
36014;BME280;22275;43.208;27.620;2023-09-12T00:38:48;101461.88;;;18.37;100.00
36014;BME280;22275;43.208;27.620;2023-09-12T00:41:15;101469.03;;;18.25;100.00
36014;BME280;22275;43.208;27.620;2023-09-12T00:43:44;101466.63;;;18.11;100.00
36014;BME280;22275;43.208;27.620;2023-09-12T00:46:11;101467.72;;;17.87;100.00
36014;BME280;22275;43.208;27.620;2023-09-12T00:48:42;101457.44;;;17.47;100.00
36014;BME280;22275;43.208;27.620;2023-09-12T00:51:10;101464.41;;;17.37;100.00
36014;BME280;22275;43.208;27.620;2023-09-12T00:53:38;101461.88;;;17.59;100.00
36014;BME280;22275;43.208;27.620;2023-09-12T00:56:06;101461.66;;;17.85;100.00
36014;BME280;22275;43.208;27.620;2023-09-12T00:58:34;101457.03;;;18.20;100.00
36014;BME280;22275;43.208;27.620;2023-09-12T01:01:03;101459.19;;;18.37;100.00
36014;BME280;22275;43.208;27.620;2023-09-12T01:03:31;101463.09;;;18.55;100.00
36014;BME280;22275;43.208;27.620;2023-09-12T01:06:00;101466.97;;;18.40;100.00
36014;BME280;22275;43.208;27.620;2023-09-12T01:08:27;101476.19;;;17.92;100.00
36014;BME280;22275;43.208;27.620;2023-09-12T01:10:56;101469.88;;;17.70;100.00
36014;BME280;22275;43.208;27.620;2023-09-12T01:13:26;101478.84;;;17.92;100.00
36014;BME280;22275;43.208;27.620;2023-09-12T01:15:55;101468.81;;;17.95;100.00
36014;BME280;22275;43.208;27.620;2023-09-12T01:18:24;101474.13;;;17.84;100.00
36014;BME280;22275;43.208;27.620;2023-09-12T01:21:11;101472.84;;;17.20;100.00
36014;BME280;22275;43.208;27.620;2023-09-12T01:23:57;101470.63;;;16.79;100.00
36014;BME280;22275;43.208;27.620;2023-09-12T01:26:48;101474.50;;;17.10;100.00
36014;BME280;22275;43.208;27.620;2023-09-12T01:29:21;101466.84;;;17.40;100.00
36014;BME280;22275;43.208;27.620;2023-09-12T01:31:51;101468.53;;;17.54;100.00
36014;BME280;22275;43.208;27.620;2023-09-12T01:34:20;101464.72;;;17.45;100.00
36014;BME280;22275;43.208;27.620;2023-09-12T01:36:47;101465.00;;;17.30;100.00
36014;BME280;22275;43.208;27.620;2023-09-12T01:39:15;101478.53;;;17.15;100.00
36014;BME280;22275;43.208;27.620;2023-09-12T01:41:45;101475.19;;;17.01;100.00
36014;BME280;22275;43.208;27.620;2023-09-12T01:44:21;101468.31;;;16.49;100.00
36014;BME280;22275;43.208;27.620;2023-09-12T01:46:53;101475.56;;;16.47;100.00
36014;BME280;22275;43.208;27.620;2023-09-12T01:49:23;101477.81;;;16.41;100.00
36014;BME280;22275;43.208;27.620;2023-09-12T01:51:52;101474.22;;;16.54;100.00
36014;BME280;22275;43.208;27.620;2023-09-12T01:54:20;101465.31;;;16.66;100.00
36014;BME280;22275;43.208;27.620;2023-09-12T01:56:48;101475.56;;;16.84;100.00
36014;BME280;22275;43.208;27.620;2023-09-12T01:59:16;101472.97;;;16.95;100.00
36014;BME280;22275;43.208;27.620;2023-09-12T02:01:44;101473.66;;;17.09;100.00
36014;BME280;22275;43.208;27.620;2023-09-12T02:04:12;101471.94;;;17.43;100.00
36014;BME280;22275;43.208;27.620;2023-09-12T02:06:39;101468.63;;;17.63;100.00
36014;BME280;22275;43.208;27.620;2023-09-12T02:09:06;101466.34;;;17.59;100.00
36014;BME280;22275;43.208;27.620;2023-09-12T02:11:33;101460.78;;;17.62;100.00
36014;BME280;22275;43.208;27.620;2023-09-12T02:14:00;101455.44;;;17.62;100.00
36014;BME280;22275;43.208;27.620;2023-09-12T02:16:28;101459.69;;;17.64;100.00
36014;BME280;22275;43.208;27.620;2023-09-12T02:18:57;101468.44;;;17.89;100.00
36014;BME280;22275;43.208;27.620;2023-09-12T02:21:24;101462.81;;;17.58;100.00
36014;BME280;22275;43.208;27.620;2023-09-12T02:23:51;101463.63;;;17.48;100.00
36014;BME280;22275;43.208;27.620;2023-09-12T02:26:19;101460.06;;;17.36;100.00
36014;BME280;22275;43.208;27.620;2023-09-12T02:28:47;101459.31;;;17.34;100.00
36014;BME280;22275;43.208;27.620;2023-09-12T02:31:14;101458.06;;;17.16;100.00
36014;BME280;22275;43.208;27.620;2023-09-12T02:33:41;101466.06;;;17.16;100.00
36014;BME280;22275;43.208;27.620;2023-09-12T02:36:10;101469.84;;;17.01;100.00
36014;BME280;22275;43.208;27.620;2023-09-12T02:38:37;101462.94;;;17.22;100.00
36014;BME280;22275;43.208;27.620;2023-09-12T02:41:04;101467.22;;;17.36;100.00
36014;BME280;22275;43.208;27.620;2023-09-12T02:43:32;101475.09;;;17.48;100.00
36014;BME280;22275;43.208;27.620;2023-09-12T02:46:00;101470.69;;;17.71;100.00
36014;BME280;22275;43.208;27.620;2023-09-12T02:48:27;101465.75;;;17.77;100.00
36014;BME280;22275;43.208;27.620;2023-09-12T02:50:55;101466.97;;;17.73;100.00
36014;BME280;22275;43.208;27.620;2023-09-12T02:53:23;101473.50;;;17.80;100.00
36014;BME280;22275;43.208;27.620;2023-09-12T02:55:51;101458.75;;;17.99;100.00
36014;BME280;22275;43.208;27.620;2023-09-12T02:58:19;101458.13;;;18.06;100.00
36014;BME280;22275;43.208;27.620;2023-09-12T03:00:47;101459.00;;;18.18;100.00
36014;BME280;22275;43.208;27.620;2023-09-12T03:03:19;101459.47;;;18.23;100.00
36014;BME280;22275;43.208;27.620;2023-09-12T03:05:47;101464.31;;;18.07;100.00
36014;BME280;22275;43.208;27.620;2023-09-12T03:08:14;101461.41;;;18.10;100.00
36014;BME280;22275;43.208;27.620;2023-09-12T03:10:43;101469.53;;;18.08;100.00
36014;BME280;22275;43.208;27.620;2023-09-12T03:13:11;101476.56;;;17.87;100.00
36014;BME280;22275;43.208;27.620;2023-09-12T03:15:39;101462.63;;;17.84;100.00
36014;BME280;22275;43.208;27.620;2023-09-12T03:18:09;101467.69;;;17.75;100.00
36014;BME280;22275;43.208;27.620;2023-09-12T03:20:38;101471.94;;;17.78;100.00
36014;BME280;22275;43.208;27.620;2023-09-12T03:23:05;101470.84;;;17.80;100.00
36014;BME280;22275;43.208;27.620;2023-09-12T03:25:35;101480.19;;;17.86;100.00
36014;BME280;22275;43.208;27.620;2023-09-12T03:28:06;101477.28;;;17.78;100.00
36014;BME280;22275;43.208;27.620;2023-09-12T03:30:36;101477.63;;;17.73;100.00
36014;BME280;22275;43.208;27.620;2023-09-12T03:33:05;101478.22;;;17.66;100.00
36014;BME280;22275;43.208;27.620;2023-09-12T03:35:32;101489.75;;;17.89;100.00
36014;BME280;22275;43.208;27.620;2023-09-12T03:38:00;101481.66;;;17.90;100.00
36014;BME280;22275;43.208;27.620;2023-09-12T03:40:28;101485.25;;;17.67;100.00
36014;BME280;22275;43.208;27.620;2023-09-12T03:42:56;101494.28;;;17.53;100.00
36014;BME280;22275;43.208;27.620;2023-09-12T03:45:25;101501.47;;;17.40;100.00
36014;BME280;22275;43.208;27.620;2023-09-12T03:47:53;101495.69;;;16.88;100.00
36014;BME280;22275;43.208;27.620;2023-09-12T03:50:20;101492.97;;;16.77;100.00
36014;BME280;22275;43.208;27.620;2023-09-12T03:52:47;101505.28;;;16.54;100.00
36014;BME280;22275;43.208;27.620;2023-09-12T03:55:15;101503.44;;;16.67;100.00
36014;BME280;22275;43.208;27.620;2023-09-12T03:57:42;101507.56;;;16.95;100.00
36014;BME280;22275;43.208;27.620;2023-09-12T04:00:09;101512.56;;;16.99;100.00
36014;BME280;22275;43.208;27.620;2023-09-12T04:02:40;101509.38;;;16.71;100.00
36014;BME280;22275;43.208;27.620;2023-09-12T04:05:08;101510.59;;;16.90;100.00
36014;BME280;22275;43.208;27.620;2023-09-12T04:07:36;101511.19;;;17.17;100.00
36014;BME280;22275;43.208;27.620;2023-09-12T04:10:03;101513.44;;;17.35;100.00
36014;BME280;22275;43.208;27.620;2023-09-12T04:12:31;101514.16;;;17.60;100.00
36014;BME280;22275;43.208;27.620;2023-09-12T04:14:58;101516.53;;;17.76;100.00
36014;BME280;22275;43.208;27.620;2023-09-12T04:17:25;101519.28;;;17.74;100.00
36014;BME280;22275;43.208;27.620;2023-09-12T04:19:54;101515.78;;;17.85;100.00
36014;BME280;22275;43.208;27.620;2023-09-12T04:22:22;101513.03;;;17.98;100.00
36014;BME280;22275;43.208;27.620;2023-09-12T04:24:49;101513.66;;;18.12;100.00
36014;BME280;22275;43.208;27.620;2023-09-12T04:27:17;101517.53;;;18.19;100.00
36014;BME280;22275;43.208;27.620;2023-09-12T04:29:44;101520.56;;;18.26;100.00
36014;BME280;22275;43.208;27.620;2023-09-12T04:32:12;101521.78;;;18.22;100.00
36014;BME280;22275;43.208;27.620;2023-09-12T04:34:42;101518.38;;;18.31;100.00
36014;BME280;22275;43.208;27.620;2023-09-12T04:37:10;101506.50;;;18.35;100.00
36014;BME280;22275;43.208;27.620;2023-09-12T04:39:38;101497.06;;;18.53;100.00
36014;BME280;22275;43.208;27.620;2023-09-12T04:42:06;101503.34;;;18.63;100.00
36014;BME280;22275;43.208;27.620;2023-09-12T04:44:35;101505.38;;;18.71;100.00
36014;BME280;22275;43.208;27.620;2023-09-12T04:47:04;101501.03;;;18.70;100.00
36014;BME280;22275;43.208;27.620;2023-09-12T04:49:31;101500.91;;;18.71;100.00
36014;BME280;22275;43.208;27.620;2023-09-12T04:51:58;101506.47;;;18.68;100.00
36014;BME280;22275;43.208;27.620;2023-09-12T04:54:27;101512.31;;;18.40;100.00
36014;BME280;22275;43.208;27.620;2023-09-12T04:56:54;101513.66;;;18.12;100.00
36014;BME280;22275;43.208;27.620;2023-09-12T04:59:24;101523.22;;;18.15;100.00
36014;BME280;22275;43.208;27.620;2023-09-12T05:01:51;101518.97;;;18.01;100.00
36014;BME280;22275;43.208;27.620;2023-09-12T05:04:18;101523.88;;;17.72;100.00
36014;BME280;22275;43.208;27.620;2023-09-12T05:06:46;101528.84;;;17.77;100.00
36014;BME280;22275;43.208;27.620;2023-09-12T05:09:13;101531.94;;;18.06;100.00
36014;BME280;22275;43.208;27.620;2023-09-12T05:11:42;101531.94;;;18.17;100.00
36014;BME280;22275;43.208;27.620;2023-09-12T05:14:10;101523.47;;;18.23;100.00
36014;BME280;22275;43.208;27.620;2023-09-12T05:16:38;101523.47;;;18.23;100.00
36014;BME280;22275;43.208;27.620;2023-09-12T05:19:05;101529.03;;;18.31;100.00
36014;BME280;22275;43.208;27.620;2023-09-12T05:21:32;101532.94;;;18.38;100.00
36014;BME280;22275;43.208;27.620;2023-09-12T05:23:59;101529.09;;;18.53;100.00
36014;BME280;22275;43.208;27.620;2023-09-12T05:26:27;101518.94;;;18.79;100.00
36014;BME280;22275;43.208;27.620;2023-09-12T05:28:55;101525.06;;;19.13;100.00
36014;BME280;22275;43.208;27.620;2023-09-12T05:31:24;101516.66;;;19.17;100.00
36014;BME280;22275;43.208;27.620;2023-09-12T05:33:51;101521.69;;;19.00;100.00
36014;BME280;22275;43.208;27.620;2023-09-12T05:36:18;101525.06;;;19.13;100.00
36014;BME280;22275;43.208;27.620;2023-09-12T05:38:48;101518.44;;;19.28;100.00
36014;BME280;22275;43.208;27.620;2023-09-12T05:41:16;101521.63;;;19.22;100.00
36014;BME280;22275;43.208;27.620;2023-09-12T05:43:43;101516.63;;;19.28;100.00
36014;BME280;22275;43.208;27.620;2023-09-12T05:46:11;101510.63;;;19.88;100.00
36014;BME280;22275;43.208;27.620;2023-09-12T05:48:39;101506.66;;;20.34;100.00
36014;BME280;22275;43.208;27.620;2023-09-12T05:51:06;101508.00;;;20.58;100.00
36014;BME280;22275;43.208;27.620;2023-09-12T05:53:33;101501.84;;;20.77;100.00
36014;BME280;22275;43.208;27.620;2023-09-12T05:56:00;101502.72;;;21.06;100.00
36014;BME280;22275;43.208;27.620;2023-09-12T05:58:28;101499.81;;;21.19;100.00
36014;BME280;22275;43.208;27.620;2023-09-12T06:00:55;101499.81;;;21.48;100.00
36014;BME280;22275;43.208;27.620;2023-09-12T06:03:26;101509.34;;;21.69;100.00
36014;BME280;22275;43.208;27.620;2023-09-12T06:05:53;101508.63;;;21.77;100.00
36014;BME280;22275;43.208;27.620;2023-09-12T06:08:20;101508.19;;;21.91;100.00
36014;BME280;22275;43.208;27.620;2023-09-12T06:10:48;101512.69;;;22.00;100.00
36014;BME280;22275;43.208;27.620;2023-09-12T06:13:19;101514.91;;;22.14;100.00
36014;BME280;22275;43.208;27.620;2023-09-12T06:15:46;101515.84;;;22.32;100.00
36014;BME280;22275;43.208;27.620;2023-09-12T06:18:17;101512.88;;;22.36;100.00
36014;BME280;22275;43.208;27.620;2023-09-12T06:20:47;101516.88;;;22.49;100.00
36014;BME280;22275;43.208;27.620;2023-09-12T06:23:17;101518.88;;;22.47;100.00
36014;BME280;22275;43.208;27.620;2023-09-12T06:25:46;101515.53;;;22.63;100.00
36014;BME280;22275;43.208;27.620;2023-09-12T06:28:24;101514.06;;;22.78;100.00
36014;BME280;22275;43.208;27.620;2023-09-12T06:30:52;101517.16;;;22.83;100.00
36014;BME280;22275;43.208;27.620;2023-09-12T06:33:19;101517.88;;;23.03;100.00
36014;BME280;22275;43.208;27.620;2023-09-12T06:35:50;101517.34;;;23.34;100.00
36014;BME280;22275;43.208;27.620;2023-09-12T06:38:18;101524.56;;;23.34;100.00
36014;BME280;22275;43.208;27.620;2023-09-12T06:40:46;101517.94;;;23.28;100.00
36014;BME280;22275;43.208;27.620;2023-09-12T06:43:14;101522.41;;;23.37;100.00
36014;BME280;22275;43.208;27.620;2023-09-12T06:45:42;101520.47;;;23.65;100.00
36014;BME280;22275;43.208;27.620;2023-09-12T06:48:33;101524.84;;;23.84;100.00
36014;BME280;22275;43.208;27.620;2023-09-12T06:51:09;101522.47;;;24.07;100.00
36014;BME280;22275;43.208;27.620;2023-09-12T06:53:36;101525.59;;;24.20;100.00
36014;BME280;22275;43.208;27.620;2023-09-12T06:56:05;101532.59;;;24.46;100.00
36014;BME280;22275;43.208;27.620;2023-09-12T06:58:33;101519.50;;;24.43;100.00
36014;BME280;22275;43.208;27.620;2023-09-12T07:01:02;101523.94;;;24.61;100.00
36014;BME280;22275;43.208;27.620;2023-09-12T07:03:30;101528.16;;;24.63;100.00
36014;BME280;22275;43.208;27.620;2023-09-12T07:05:59;101528.78;;;24.49;100.00
36014;BME280;22275;43.208;27.620;2023-09-12T07:08:29;101525.88;;;24.84;100.00
36014;BME280;22275;43.208;27.620;2023-09-12T07:10:59;101535.50;;;24.87;100.00
36014;BME280;22275;43.208;27.620;2023-09-12T07:13:32;101527.34;;;24.79;100.00
36014;BME280;22275;43.208;27.620;2023-09-12T07:16:00;101531.31;;;25.00;100.00
36014;BME280;22275;43.208;27.620;2023-09-12T07:18:30;101522.09;;;25.35;100.00
36014;BME280;22275;43.208;27.620;2023-09-12T07:20:59;101530.88;;;25.78;100.00
36014;BME280;22275;43.208;27.620;2023-09-12T07:23:29;101524.47;;;25.87;100.00
36014;BME280;22275;43.208;27.620;2023-09-12T07:25:59;101515.50;;;25.94;100.00
36014;BME280;22275;43.208;27.620;2023-09-12T07:28:29;101527.47;;;26.00;100.00
36014;BME280;22275;43.208;27.620;2023-09-12T07:30:57;101527.28;;;26.17;100.00
36014;BME280;22275;43.208;27.620;2023-09-12T07:33:25;101522.97;;;25.76;100.00
36014;BME280;22275;43.208;27.620;2023-09-12T07:35:53;101515.03;;;25.91;100.00
36014;BME280;22275;43.208;27.620;2023-09-12T07:38:20;101517.28;;;26.34;100.00
36014;BME280;22275;43.208;27.620;2023-09-12T07:40:49;101508.53;;;26.63;100.00
36014;BME280;22275;43.208;27.620;2023-09-12T07:43:17;101507.25;;;26.90;100.00
36014;BME280;22275;43.208;27.620;2023-09-12T07:45:46;101507.00;;;26.99;100.00
36014;BME280;22275;43.208;27.620;2023-09-12T07:48:15;101502.22;;;27.32;100.00
36014;BME280;22275;43.208;27.620;2023-09-12T07:50:42;101495.03;;;27.24;100.00
36014;BME280;22275;43.208;27.620;2023-09-12T07:53:10;101496.09;;;26.93;100.00
36014;BME280;22275;43.208;27.620;2023-09-12T07:55:38;101501.72;;;26.83;100.00
36014;BME280;22275;43.208;27.620;2023-09-12T07:58:13;101506.19;;;26.99;100.00
36014;BME280;22275;43.208;27.620;2023-09-12T08:00:41;101496.44;;;27.35;100.00
36014;BME280;22275;43.208;27.620;2023-09-12T08:03:08;101488.50;;;27.56;100.00
36014;BME280;22275;43.208;27.620;2023-09-12T08:05:35;101491.97;;;27.65;100.00
36014;BME280;22275;43.208;27.620;2023-09-12T08:08:04;101505.19;;;27.45;100.00
36014;BME280;22275;43.208;27.620;2023-09-12T08:10:32;101497.63;;;27.78;100.00
36014;BME280;22275;43.208;27.620;2023-09-12T08:12:59;101495.50;;;28.03;100.00
36014;BME280;22275;43.208;27.620;2023-09-12T08:15:28;101492.41;;;27.54;100.00
36014;BME280;22275;43.208;27.620;2023-09-12T08:17:55;101494.44;;;27.74;100.00
36014;BME280;22275;43.208;27.620;2023-09-12T08:20:22;101494.69;;;27.65;100.00
36014;BME280;22275;43.208;27.620;2023-09-12T08:22:50;101500.03;;;27.87;100.00
36014;BME280;22275;43.208;27.620;2023-09-12T08:25:18;101488.44;;;27.79;100.00
36014;BME280;22275;43.208;27.620;2023-09-12T08:27:45;101488.66;;;27.77;100.00
36014;BME280;22275;43.208;27.620;2023-09-12T08:30:13;101479.69;;;27.17;100.00
36014;BME280;22275;43.208;27.620;2023-09-12T08:32:42;101488.50;;;27.11;100.00
36014;BME280;22275;43.208;27.620;2023-09-12T08:35:10;101494.66;;;27.50;100.00
36014;BME280;22275;43.208;27.620;2023-09-12T08:37:40;101487.03;;;27.68;100.00
36014;BME280;22275;43.208;27.620;2023-09-12T08:40:08;101491.69;;;28.12;100.00
36014;BME280;22275;43.208;27.620;2023-09-12T08:42:40;101486.81;;;28.22;100.00
36014;BME280;22275;43.208;27.620;2023-09-12T08:45:11;101481.22;;;28.23;100.00
36014;BME280;22275;43.208;27.620;2023-09-12T08:47:43;101475.53;;;28.04;100.00
36014;BME280;22275;43.208;27.620;2023-09-12T08:50:13;101484.38;;;27.98;100.00
36014;BME280;22275;43.208;27.620;2023-09-12T08:52:43;101476.25;;;27.46;100.00
36014;BME280;22275;43.208;27.620;2023-09-12T08:55:11;101482.06;;;27.57;100.00
36014;BME280;22275;43.208;27.620;2023-09-12T08:57:40;101480.38;;;27.56;100.00
36014;BME280;22275;43.208;27.620;2023-09-12T09:00:08;101476.38;;;27.52;100.00
36014;BME280;22275;43.208;27.620;2023-09-12T09:02:38;101475.53;;;27.52;100.00
36014;BME280;22275;43.208;27.620;2023-09-12T09:05:09;101482.28;;;27.56;100.00
36014;BME280;22275;43.208;27.620;2023-09-12T09:07:37;101480.13;;;28.03;100.00
36014;BME280;22275;43.208;27.620;2023-09-12T09:10:07;101477.41;;;28.32;100.00
36014;BME280;22275;43.208;27.620;2023-09-12T09:12:35;101470.66;;;28.14;100.00
36014;BME280;22275;43.208;27.620;2023-09-12T09:15:23;101474.09;;;27.78;100.00
36014;BME280;22275;43.208;27.620;2023-09-12T09:17:52;101473.41;;;27.76;100.00
36014;BME280;22275;43.208;27.620;2023-09-12T09:20:30;101470.66;;;28.43;100.00
36014;BME280;22275;43.208;27.620;2023-09-12T09:23:01;101470.03;;;28.62;100.00
36014;BME280;22275;43.208;27.620;2023-09-12T09:25:31;101461.47;;;28.44;100.00
36014;BME280;22275;43.208;27.620;2023-09-12T09:28:02;101467.22;;;28.05;100.00
36014;BME280;22275;43.208;27.620;2023-09-12T09:30:41;101475.88;;;28.30;100.00
36014;BME280;22275;43.208;27.620;2023-09-12T09:33:09;101474.31;;;28.21;100.00
36014;BME280;22275;43.208;27.620;2023-09-12T09:35:41;101465.72;;;28.17;100.00
36014;BME280;22275;43.208;27.620;2023-09-12T09:38:08;101472.53;;;28.28;100.00
36014;BME280;22275;43.208;27.620;2023-09-12T09:40:38;101475.50;;;28.33;100.00
36014;BME280;22275;43.208;27.620;2023-09-12T09:43:05;101470.28;;;28.46;100.00
36014;BME280;22275;43.208;27.620;2023-09-12T09:45:32;101474.38;;;28.27;100.00
36014;BME280;22275;43.208;27.620;2023-09-12T09:48:09;101465.38;;;28.56;100.00
36014;BME280;22275;43.208;27.620;2023-09-12T09:50:37;101460.22;;;28.61;100.00
36014;BME280;22275;43.208;27.620;2023-09-12T09:53:05;101466.22;;;28.57;100.00
36014;BME280;22275;43.208;27.620;2023-09-12T09:55:34;101460.81;;;28.57;100.00
36014;BME280;22275;43.208;27.620;2023-09-12T09:58:01;101463.19;;;28.81;100.00
36014;BME280;22275;43.208;27.620;2023-09-12T10:00:29;101449.63;;;29.02;100.00
36014;BME280;22275;43.208;27.620;2023-09-12T10:02:58;101453.28;;;28.37;100.00
36014;BME280;22275;43.208;27.620;2023-09-12T10:05:28;101451.78;;;28.35;100.00
36014;BME280;22275;43.208;27.620;2023-09-12T10:07:57;101457.72;;;29.17;100.00
36014;BME280;22275;43.208;27.620;2023-09-12T10:10:28;101451.16;;;29.26;100.00
36014;BME280;22275;43.208;27.620;2023-09-12T10:13:03;101456.13;;;28.65;100.00
36014;BME280;22275;43.208;27.620;2023-09-12T10:15:32;101446.34;;;29.06;100.00
36014;BME280;22275;43.208;27.620;2023-09-12T10:18:07;101450.72;;;29.50;100.00
36014;BME280;22275;43.208;27.620;2023-09-12T10:20:37;101450.63;;;28.94;100.00
36014;BME280;22275;43.208;27.620;2023-09-12T10:23:13;101447.13;;;29.00;100.00
36014;BME280;22275;43.208;27.620;2023-09-12T10:25:45;101450.56;;;29.30;100.00
36014;BME280;22275;43.208;27.620;2023-09-12T10:28:13;101444.91;;;29.53;100.00
36014;BME280;22275;43.208;27.620;2023-09-12T10:30:42;101438.53;;;28.97;100.00
36014;BME280;22275;43.208;27.620;2023-09-12T10:33:11;101447.72;;;29.17;100.00
36014;BME280;22275;43.208;27.620;2023-09-12T10:35:40;101440.88;;;28.64;100.00
36014;BME280;22275;43.208;27.620;2023-09-12T10:38:11;101439.34;;;28.76;100.00
36014;BME280;22275;43.208;27.620;2023-09-12T10:40:40;101437.66;;;28.75;100.00
36014;BME280;22275;43.208;27.620;2023-09-12T10:43:09;101434.16;;;28.60;100.00
36014;BME280;22275;43.208;27.620;2023-09-12T10:45:38;101433.84;;;28.34;100.00
36014;BME280;22275;43.208;27.620;2023-09-12T10:48:09;101434.06;;;28.18;100.00
36014;BME280;22275;43.208;27.620;2023-09-12T10:50:37;101434.97;;;28.25;100.00
36014;BME280;22275;43.208;27.620;2023-09-12T10:53:11;101441.50;;;28.30;100.00
36014;BME280;22275;43.208;27.620;2023-09-12T10:55:38;101424.53;;;28.58;100.00
36014;BME280;22275;43.208;27.620;2023-09-12T10:58:09;101420.25;;;28.63;100.00
36014;BME280;22275;43.208;27.620;2023-09-12T11:00:37;101428.56;;;28.47;100.00
36014;BME280;22275;43.208;27.620;2023-09-12T11:03:37;101428.75;;;28.81;100.00
36014;BME280;22275;43.208;27.620;2023-09-12T11:06:19;101420.13;;;28.92;100.00
36014;BME280;22275;43.208;27.620;2023-09-12T11:11:49;101422.63;;;28.58;100.00
36014;BME280;22275;43.208;27.620;2023-09-12T11:14:21;101417.53;;;29.05;100.00
36014;BME280;22275;43.208;27.620;2023-09-12T11:17:22;101425.94;;;28.68;100.00
36014;BME280;22275;43.208;27.620;2023-09-12T11:19:51;101415.22;;;28.81;100.00
36014;BME280;22275;43.208;27.620;2023-09-12T11:22:22;101411.94;;;28.86;100.00
36014;BME280;22275;43.208;27.620;2023-09-12T11:24:50;101412.00;;;28.57;100.00
36014;BME280;22275;43.208;27.620;2023-09-12T11:27:19;101406.44;;;28.79;100.00
36014;BME280;22275;43.208;27.620;2023-09-12T11:29:46;101408.44;;;28.71;100.00
36014;BME280;22275;43.208;27.620;2023-09-12T11:32:26;101414.09;;;28.76;100.00
36014;BME280;22275;43.208;27.620;2023-09-12T11:34:52;101405.22;;;28.46;100.00
36014;BME280;22275;43.208;27.620;2023-09-12T11:37:24;101408.19;;;28.51;100.00
36014;BME280;22275;43.208;27.620;2023-09-12T11:39:52;101420.41;;;28.26;100.00
36014;BME280;22275;43.208;27.620;2023-09-12T11:42:21;101408.91;;;28.24;100.00
36014;BME280;22275;43.208;27.620;2023-09-12T11:44:51;101412.16;;;28.34;100.00
36014;BME280;22275;43.208;27.620;2023-09-12T11:47:19;101396.50;;;28.15;100.00
36014;BME280;22275;43.208;27.620;2023-09-12T11:49:47;101412.94;;;27.84;100.00
36014;BME280;22275;43.208;27.620;2023-09-12T11:52:15;101392.22;;;28.06;100.00
36014;BME280;22275;43.208;27.620;2023-09-12T11:54:43;101403.22;;;27.60;100.00
36014;BME280;22275;43.208;27.620;2023-09-12T11:57:14;101397.03;;;27.95;100.00
36014;BME280;22275;43.208;27.620;2023-09-12T11:59:44;101404.63;;;28.15;100.00
36014;BME280;22275;43.208;27.620;2023-09-12T12:02:14;101392.56;;;27.73;100.00
36014;BME280;22275;43.208;27.620;2023-09-12T12:04:41;101397.53;;;27.70;100.00
36014;BME280;22275;43.208;27.620;2023-09-12T12:07:09;101398.53;;;27.54;100.00
36014;BME280;22275;43.208;27.620;2023-09-12T12:09:37;101396.84;;;27.97;100.00
36014;BME280;22275;43.208;27.620;2023-09-12T12:12:10;101403.88;;;27.91;100.00
36014;BME280;22275;43.208;27.620;2023-09-12T12:14:39;101378.75;;;27.98;100.00
36014;BME280;22275;43.208;27.620;2023-09-12T12:17:10;101384.16;;;27.98;100.00
36014;BME280;22275;43.208;27.620;2023-09-12T12:19:38;101384.44;;;27.59;100.00
36014;BME280;22275;43.208;27.620;2023-09-12T12:22:06;101388.34;;;27.42;100.00
36014;BME280;22275;43.208;27.620;2023-09-12T12:24:38;101384.25;;;27.75;100.00
36014;BME280;22275;43.208;27.620;2023-09-12T12:27:06;101391.50;;;27.45;100.00
36014;BME280;22275;43.208;27.620;2023-09-12T12:29:36;101387.59;;;27.48;100.00
36014;BME280;22275;43.208;27.620;2023-09-12T12:32:05;101377.63;;;27.48;100.00
36014;BME280;22275;43.208;27.620;2023-09-12T12:34:36;101372.59;;;27.22;100.00
36014;BME280;22275;43.208;27.620;2023-09-12T12:37:04;101378.84;;;27.23;100.00
36014;BME280;22275;43.208;27.620;2023-09-12T12:39:32;101383.69;;;27.13;100.00
36014;BME280;22275;43.208;27.620;2023-09-12T12:42:00;101396.28;;;27.43;100.00
36014;BME280;22275;43.208;27.620;2023-09-12T12:44:35;101374.19;;;27.69;100.00